Time;durP1;ratioP1;P1;durP2;ratioP2;P2;SDS_P1;SDS_P2;PMS_P1;PMS_P2;Temp;Humidity;BMP_temperature;BMP_pressure;BME280_temperature;BME280_humidity;BME280_pressure;Samples;Min_cycle;Max_cycle;Signal;HPM_P1;HPM_P2
2022/10/12 00:00:21;;;;;;;30.63;28.20;;;14.20;94.00;;;;;;5019523;28;20551;-79
2022/10/12 00:02:49;;;;;;;29.90;27.37;;;14.20;94.10;;;;;;5024801;28;20472;-79
2022/10/12 00:05:16;;;;;;;30.93;28.23;;;14.20;94.20;;;;;;5028802;28;20610;-77
2022/10/12 00:07:43;;;;;;;30.80;28.30;;;14.10;94.40;;;;;;5040724;28;20487;-79
2022/10/12 00:10:10;;;;;;;32.53;29.63;;;14.10;94.70;;;;;;5027439;28;20458;-79
2022/10/12 00:12:37;;;;;;;32.27;29.50;;;14.10;94.90;;;;;;5030116;28;20494;-79
2022/10/12 00:15:05;;;;;;;31.30;28.43;;;14.00;94.80;;;;;;5027532;28;20479;-79
2022/10/12 00:17:32;;;;;;;29.07;26.30;;;14.00;94.90;;;;;;5025989;28;20456;-79
2022/10/12 00:20:00;;;;;;;29.90;27.30;;;13.90;95.00;;;;;;5029073;28;20460;-79
2022/10/12 00:22:27;;;;;;;30.00;27.20;;;13.90;95.30;;;;;;5028883;28;20463;-79
2022/10/12 00:24:54;;;;;;;29.13;26.63;;;13.80;95.70;;;;;;5024350;28;20476;-79
2022/10/12 00:27:21;;;;;;;28.97;26.43;;;13.80;95.70;;;;;;5028064;28;20484;-79
2022/10/12 00:29:48;;;;;;;31.80;28.60;;;13.80;95.70;;;;;;5028185;28;20462;-79
2022/10/12 00:32:15;;;;;;;30.47;27.87;;;13.70;95.70;;;;;;5025552;28;20467;-79
2022/10/12 00:34:42;;;;;;;29.57;26.83;;;13.70;95.70;;;;;;5028056;28;20472;-79
2022/10/12 00:37:10;;;;;;;32.73;27.87;;;13.70;95.70;;;;;;5027285;28;20462;-80
2022/10/12 00:39:37;;;;;;;28.93;26.60;;;13.70;95.90;;;;;;5029033;28;20530;-79
2022/10/12 00:42:04;;;;;;;29.30;26.47;;;13.60;96.10;;;;;;5025989;28;20878;-79
2022/10/12 00:44:39;;;;;;;30.40;27.30;;;13.60;96.20;;;;;;5026723;28;20477;-79
2022/10/12 00:47:20;;;;;;;28.97;26.47;;;13.60;96.20;;;;;;5025801;28;20459;-79
2022/10/12 00:49:51;;;;;;;29.50;26.90;;;13.50;96.30;;;;;;5026427;28;20551;-80
2022/10/12 00:52:23;;;;;;;28.50;26.10;;;13.60;96.20;;;;;;5029111;28;20958;-79
2022/10/12 00:54:51;;;;;;;28.07;25.80;;;13.60;96.30;;;;;;5026192;28;20484;-79
2022/10/12 00:57:19;;;;;;;29.60;26.83;;;13.60;96.10;;;;;;5027282;28;20645;-79
2022/10/12 00:59:51;;;;;;;32.07;29.23;;;13.50;96.10;;;;;;5026692;28;20986;-79
2022/10/12 01:02:20;;;;;;;32.00;29.33;;;13.50;96.20;;;;;;5026368;28;20459;-79
2022/10/12 01:04:47;;;;;;;30.63;27.93;;;13.50;96.60;;;;;;5026145;28;20496;-79
2022/10/12 01:07:14;;;;;;;30.07;27.43;;;13.50;96.60;;;;;;5027202;28;20452;-79
2022/10/12 01:09:43;;;;;;;29.43;26.00;;;13.40;96.50;;;;;;5027265;28;20470;-79
2022/10/12 01:12:10;;;;;;;30.00;26.93;;;13.40;96.60;;;;;;5028697;28;21096;-79
2022/10/12 01:14:37;;;;;;;29.57;27.00;;;13.40;96.60;;;;;;5025184;28;20490;-79
2022/10/12 01:17:12;;;;;;;30.43;27.63;;;13.40;96.50;;;;;;5026923;28;20543;-79
2022/10/12 01:19:58;;;;;;;28.80;26.43;;;13.40;96.50;;;;;;5026622;28;20456;-79
2022/10/12 01:22:26;;;;;;;36.10;26.47;;;13.40;96.60;;;;;;5029483;28;20553;-79
2022/10/12 01:25:05;;;;;;;29.10;26.40;;;13.40;96.10;;;;;;5024960;28;20479;-79
2022/10/12 01:27:43;;;;;;;28.23;25.87;;;13.30;96.30;;;;;;5024755;28;20456;-79
2022/10/12 01:30:16;;;;;;;35.00;27.40;;;13.20;96.80;;;;;;5025476;28;20459;-79
2022/10/12 01:33:13;;;;;;;30.00;27.30;;;13.20;96.90;;;;;;5026570;28;20551;-79
2022/10/12 01:35:49;;;;;;;28.37;25.73;;;13.20;97.00;;;;;;5016166;28;20888;-79
2022/10/12 01:38:24;;;;;;;30.00;27.57;;;13.10;97.00;;;;;;5028765;28;20543;-79
2022/10/12 01:40:57;;;;;;;29.17;26.47;;;13.10;97.00;;;;;;5025331;28;20539;-79
2022/10/12 01:43:33;;;;;;;31.30;28.50;;;13.00;97.20;;;;;;5021889;28;20550;-79
2022/10/12 01:46:07;;;;;;;31.27;28.30;;;13.00;97.40;;;;;;5027058;28;20945;-79
2022/10/12 01:48:34;;;;;;;31.53;28.63;;;13.00;97.30;;;;;;5025737;28;20454;-79
2022/10/12 01:51:02;;;;;;;27.73;25.43;;;13.00;97.20;;;;;;5026463;28;20462;-79
2022/10/12 01:53:40;;;;;;;29.83;27.13;;;13.00;97.20;;;;;;5026649;28;20571;-79
2022/10/12 01:56:13;;;;;;;30.83;27.90;;;13.00;97.20;;;;;;5030972;28;20462;-79
2022/10/12 01:58:54;;;;;;;30.50;27.30;;;12.90;97.20;;;;;;5031620;28;20460;-79
2022/10/12 02:01:30;;;;;;;31.73;28.17;;;12.90;97.20;;;;;;5029980;28;20491;-79
2022/10/12 02:04:02;;;;;;;29.87;27.00;;;12.90;97.10;;;;;;5031176;28;20479;-79
2022/10/12 02:06:34;;;;;;;28.83;26.07;;;12.80;97.20;;;;;;5030545;28;20547;-79
2022/10/12 02:09:05;;;;;;;29.43;26.50;;;12.80;97.10;;;;;;5033665;28;20864;-79
2022/10/12 02:11:34;;;;;;;31.20;28.03;;;12.80;97.00;;;;;;5028412;28;20558;-79
2022/10/12 02:14:08;;;;;;;30.60;27.60;;;12.70;97.50;;;;;;5031018;28;20571;-79
2022/10/12 02:16:40;;;;;;;29.77;26.90;;;12.70;97.50;;;;;;5029405;28;20554;-79
2022/10/12 02:19:12;;;;;;;28.77;26.17;;;12.60;97.60;;;;;;5032661;28;20486;-79
2022/10/12 02:21:40;;;;;;;31.23;28.43;;;12.60;97.50;;;;;;5030124;28;20539;-79
2022/10/12 02:24:10;;;;;;;30.77;27.90;;;12.60;97.50;;;;;;5030503;28;20566;-79
2022/10/12 02:26:40;;;;;;;32.33;29.03;;;12.60;97.40;;;;;;5031582;28;20454;-79
2022/10/12 02:29:14;;;;;;;31.10;28.50;;;12.50;97.40;;;;;;5030693;28;20547;-79
2022/10/12 02:31:50;;;;;;;30.37;27.70;;;12.50;97.50;;;;;;5030706;28;20452;-79
2022/10/12 02:34:19;;;;;;;31.60;26.93;;;12.40;97.50;;;;;;5031780;28;20946;-79
2022/10/12 02:36:51;;;;;;;30.10;27.50;;;12.40;97.60;;;;;;5029550;28;20455;-79
2022/10/12 02:39:23;;;;;;;29.57;26.67;;;12.30;97.70;;;;;;5028147;28;20459;-78
2022/10/12 02:41:53;;;;;;;29.90;26.93;;;12.30;97.90;;;;;;5029199;28;20833;-79
2022/10/12 02:44:23;;;;;;;44.77;41.53;;;12.30;98.00;;;;;;5031504;28;20476;-79
2022/10/12 02:46:53;;;;;;;28.87;26.57;;;12.40;97.90;;;;;;5030358;28;20471;-79
2022/10/12 02:49:21;;;;;;;28.93;26.53;;;12.40;97.80;;;;;;5029489;28;20509;-79
2022/10/12 02:51:48;;;;;;;27.37;24.97;;;12.40;97.70;;;;;;5029308;28;20456;-79
2022/10/12 02:54:15;;;;;;;29.77;26.87;;;12.40;97.80;;;;;;5030539;28;20471;-79
2022/10/12 02:56:44;;;;;;;27.27;25.07;;;12.40;97.30;;;;;;5030510;28;20542;-78
2022/10/12 02:59:11;;;;;;;29.80;27.30;;;12.50;97.10;;;;;;5027979;28;21157;-79
2022/10/12 03:01:38;;;;;;;29.03;26.63;;;12.50;97.30;;;;;;5025652;28;20463;-79
2022/10/12 03:04:06;;;;;;;34.87;32.03;;;12.50;97.40;;;;;;5029218;28;20488;-79
2022/10/12 03:06:33;;;;;;;27.20;24.93;;;12.50;97.00;;;;;;5022173;28;20448;-78
2022/10/12 03:09:00;;;;;;;30.30;28.10;;;12.60;96.30;;;;;;5026872;28;20470;-79
2022/10/12 03:11:28;;;;;;;27.07;24.67;;;12.50;96.60;;;;;;5026681;28;20799;-79
2022/10/12 03:13:55;;;;;;;36.23;33.67;;;12.50;96.50;;;;;;5030349;28;20472;-79
2022/10/12 03:16:22;;;;;;;26.80;24.50;;;12.50;96.30;;;;;;5028503;28;20975;-79
2022/10/12 03:18:49;;;;;;;28.10;26.10;;;12.50;96.50;;;;;;5027928;28;20935;-79
2022/10/12 03:21:18;;;;;;;26.20;23.90;;;12.40;96.70;;;;;;5023858;28;20543;-78
2022/10/12 03:23:45;;;;;;;27.07;24.90;;;12.50;97.00;;;;;;5030250;28;20480;-79
2022/10/12 03:26:12;;;;;;;31.63;29.23;;;12.50;96.90;;;;;;5028955;28;21057;-79
2022/10/12 03:28:39;;;;;;;39.23;36.57;;;12.60;96.70;;;;;;5030298;28;20799;-79
2022/10/12 03:31:06;;;;;;;27.77;25.50;;;12.60;96.10;;;;;;5027382;28;20521;-79
2022/10/12 03:33:32;;;;;;;31.40;28.93;;;12.50;96.20;;;;;;5028027;28;21004;-79
2022/10/12 03:35:59;;;;;;;29.00;26.80;;;12.50;96.20;;;;;;5028650;28;21052;-79
2022/10/12 03:38:27;;;;;;;26.53;24.33;;;12.50;96.30;;;;;;5030644;28;20744;-79
2022/10/12 03:40:56;;;;;;;26.63;24.23;;;12.50;96.80;;;;;;5026297;28;20458;-79
2022/10/12 03:43:23;;;;;;;30.20;27.50;;;12.50;96.70;;;;;;5026828;28;20456;-79
2022/10/12 03:45:51;;;;;;;30.27;27.40;;;12.50;96.90;;;;;;5027902;28;20494;-79
2022/10/12 03:48:18;;;;;;;28.83;26.33;;;12.50;96.70;;;;;;5028451;28;20452;-79
2022/10/12 03:50:48;;;;;;;29.70;27.40;;;12.50;96.50;;;;;;5028439;28;20550;-79
2022/10/12 03:53:17;;;;;;;32.97;30.40;;;12.50;96.50;;;;;;5025900;28;20460;-80
2022/10/12 03:55:46;;;;;;;26.80;24.40;;;12.50;96.60;;;;;;5024024;28;20551;-79
2022/10/12 03:58:13;;;;;;;30.20;27.80;;;12.50;96.50;;;;;;5028697;28;20515;-79
2022/10/12 04:00:40;;;;;;;37.07;34.33;;;12.50;96.50;;;;;;5027706;28;20491;-79
2022/10/12 04:03:09;;;;;;;28.50;26.30;;;12.50;96.40;;;;;;5026288;28;20810;-79
2022/10/12 04:05:36;;;;;;;31.60;29.30;;;12.40;96.60;;;;;;5028203;28;20566;-79
2022/10/12 04:08:03;;;;;;;42.47;39.60;;;12.40;96.90;;;;;;5026736;28;21012;-78
2022/10/12 04:10:30;;;;;;;26.57;24.70;;;12.40;96.90;;;;;;5026772;28;20928;-79
2022/10/12 04:12:58;;;;;;;30.90;28.57;;;12.40;97.10;;;;;;5025634;28;20464;-79
2022/10/12 04:15:25;;;;;;;33.30;30.90;;;12.40;97.10;;;;;;5026186;28;20482;-79
2022/10/12 04:17:52;;;;;;;34.67;31.93;;;12.40;97.10;;;;;;5026682;28;20461;-79
2022/10/12 04:20:19;;;;;;;28.63;25.83;;;12.40;97.20;;;;;;5020506;28;20538;-79
2022/10/12 04:22:46;;;;;;;39.10;36.07;;;12.50;97.20;;;;;;5026623;28;20464;-79
2022/10/12 04:25:13;;;;;;;27.33;25.03;;;12.50;97.10;;;;;;5023478;28;20515;-79
2022/10/12 04:27:40;;;;;;;38.10;35.40;;;12.60;97.00;;;;;;5027264;28;20464;-79
2022/10/12 04:30:10;;;;;;;31.50;28.97;;;12.60;96.90;;;;;;5018856;28;20463;-78
2022/10/12 04:32:37;;;;;;;36.53;33.90;;;12.70;96.90;;;;;;5022583;28;20468;-79
2022/10/12 04:35:04;;;;;;;34.20;31.00;;;12.70;96.50;;;;;;5024461;28;20932;-79
2022/10/12 04:37:31;;;;;;;25.93;23.67;;;12.80;96.40;;;;;;5028094;28;20468;-79
2022/10/12 04:39:58;;;;;;;38.43;35.53;;;12.80;96.40;;;;;;5023974;28;20451;-78
2022/10/12 04:42:25;;;;;;;34.00;31.20;;;12.80;96.30;;;;;;5027674;28;20570;-77
2022/10/12 04:44:52;;;;;;;29.77;27.53;;;13.00;96.10;;;;;;5022969;28;20483;-78
2022/10/12 04:47:20;;;;;;;44.60;41.30;;;13.00;95.80;;;;;;5027877;28;20495;-79
2022/10/12 04:49:47;;;;;;;40.37;37.20;;;13.00;95.80;;;;;;5025310;28;20535;-79
2022/10/12 04:52:14;;;;;;;27.83;25.10;;;13.00;95.80;;;;;;5029288;28;20462;-79
2022/10/12 04:54:41;;;;;;;37.50;34.80;;;13.00;95.90;;;;;;5030515;28;21019;-80
2022/10/12 04:57:08;;;;;;;27.80;25.70;;;12.90;95.90;;;;;;5029566;28;20460;-78
2022/10/12 04:59:35;;;;;;;42.97;40.00;;;13.00;95.60;;;;;;5025172;28;20964;-79
2022/10/12 05:02:02;;;;;;;32.27;29.90;;;12.90;95.40;;;;;;5031265;28;21024;-80
2022/10/12 05:04:30;;;;;;;37.27;34.80;;;13.00;95.50;;;;;;5028702;28;20494;-78
2022/10/12 05:06:57;;;;;;;32.37;30.07;;;13.00;95.40;;;;;;5017315;28;20459;-79
2022/10/12 05:09:24;;;;;;;28.87;26.47;;;12.90;95.80;;;;;;5030489;28;21259;-83
2022/10/12 05:11:51;;;;;;;30.47;27.67;;;13.00;95.70;;;;;;5030940;28;20893;-79
2022/10/12 05:14:18;;;;;;;29.53;27.03;;;13.00;95.80;;;;;;5024674;28;20570;-81
2022/10/12 05:16:45;;;;;;;27.33;25.10;;;13.10;95.70;;;;;;5024453;28;20452;-81
2022/10/12 05:19:30;;;;;;;;;;;;;;;;;;;;;
2022/10/12 05:21:58;;;;;;;34.50;31.80;;;13.20;95.70;;;;;;5038185;28;20807;-82
2022/10/12 05:24:25;;;;;;;31.30;28.50;;;13.20;95.60;;;;;;5033306;28;20477;-83
2022/10/12 05:27:01;;;;;;;27.70;25.30;;;13.20;95.50;;;;;;5027761;28;20460;-85
2022/10/12 05:29:29;;;;;;;38.20;35.07;;;13.20;95.50;;;;;;5018407;28;20560;-80
2022/10/12 05:31:55;;;;;;;39.90;36.80;;;13.20;95.40;;;;;;5016062;23;20499;-81
2022/10/12 05:34:22;;;;;;;39.67;36.87;;;13.30;95.50;;;;;;4992763;28;20473;-82
2022/10/12 05:36:52;;;;;;;33.10;30.40;;;13.30;95.30;;;;;;5009590;28;20465;-76
2022/10/12 05:39:21;;;;;;;29.43;26.93;;;13.30;95.40;;;;;;5009310;28;20464;-77
2022/10/12 05:41:47;;;;;;;29.83;27.47;;;13.30;95.60;;;;;;5010616;28;20462;-82
2022/10/12 05:44:15;;;;;;;48.07;45.00;;;13.30;95.60;;;;;;5017257;28;20542;-80
2022/10/12 05:46:42;;;;;;;40.53;37.60;;;13.30;95.60;;;;;;5013846;28;20491;-82
2022/10/12 05:49:09;;;;;;;30.97;28.27;;;13.30;95.50;;;;;;5006548;28;20565;-79
2022/10/12 05:51:37;;;;;;;31.73;29.10;;;13.40;95.40;;;;;;5008960;28;20552;-77
2022/10/12 05:54:04;;;;;;;35.17;32.47;;;13.40;95.40;;;;;;5004541;28;20484;-77
2022/10/12 05:56:32;;;;;;;42.80;39.80;;;13.50;95.20;;;;;;5005377;28;20475;-77
2022/10/12 05:58:59;;;;;;;31.77;29.43;;;13.50;95.00;;;;;;5007652;28;20471;-78
2022/10/12 06:01:44;;;;;;;29.77;27.37;;;13.50;95.00;;;;;;5001530;28;20465;-78
2022/10/12 06:04:11;;;;;;;47.60;44.60;;;13.60;94.40;;;;;;5009087;28;20488;-77
2022/10/12 06:06:39;;;;;;;29.03;26.73;;;13.70;94.00;;;;;;5007025;28;20495;-77
2022/10/12 06:09:06;;;;;;;39.67;36.70;;;13.80;93.70;;;;;;5007885;28;20901;-79
2022/10/12 06:11:35;;;;;;;30.37;27.80;;;13.70;93.80;;;;;;5008431;28;20500;-77
2022/10/12 06:14:03;;;;;;;29.27;26.67;;;13.60;94.30;;;;;;5006794;28;20531;-77
2022/10/12 06:16:29;;;;;;;35.00;31.83;;;13.60;94.70;;;;;;5011130;28;20511;-77
2022/10/12 06:18:56;;;;;;;36.80;34.13;;;13.60;94.80;;;;;;5008927;28;20969;-78
2022/10/12 06:21:23;;;;;;;44.70;41.77;;;13.60;94.80;;;;;;5010434;28;20512;-81
2022/10/12 06:23:53;;;;;;;29.00;26.63;;;13.70;94.90;;;;;;5004854;28;20516;-82
2022/10/12 06:26:20;;;;;;;31.07;28.40;;;13.70;95.00;;;;;;5011534;28;20571;-80
2022/10/12 06:28:49;;;;;;;31.70;28.80;;;13.70;95.10;;;;;;5017729;28;21038;-81
2022/10/12 06:31:16;;;;;;;41.23;38.00;;;13.80;95.00;;;;;;5018563;28;20927;-81
2022/10/12 06:33:43;;;;;;;39.70;36.90;;;13.90;94.80;;;;;;5011309;28;20460;-79
2022/10/12 06:36:09;;;;;;;31.73;28.87;;;14.00;94.70;;;;;;5007848;28;20234;-78
2022/10/12 06:38:36;;;;;;;32.50;29.50;;;14.00;94.00;;;;;;5015766;28;20535;-79
2022/10/12 06:41:03;;;;;;;45.50;41.57;;;14.10;94.20;;;;;;5013499;28;20537;-78
2022/10/12 06:43:30;;;;;;;36.33;33.17;;;14.20;94.00;;;;;;5014971;28;21108;-78
2022/10/12 06:46:01;;;;;;;48.50;45.10;;;14.20;94.00;;;;;;5019301;28;21001;-79
2022/10/12 06:48:28;;;;;;;44.53;40.87;;;14.30;94.00;;;;;;5016211;28;20465;-77
2022/10/12 06:50:55;;;;;;;34.23;30.83;;;14.30;94.10;;;;;;5007198;28;20465;-78
2022/10/12 06:53:24;;;;;;;45.50;41.17;;;14.40;93.80;;;;;;5007462;28;20467;-78
2022/10/12 06:55:51;;;;;;;38.37;34.20;;;14.50;93.40;;;;;;5008701;28;20573;-78
2022/10/12 06:58:18;;;;;;;42.07;37.87;;;14.50;93.10;;;;;;5003748;28;21058;-78
2022/10/12 07:00:45;;;;;;;52.27;47.53;;;14.50;92.90;;;;;;5006605;28;20645;-77
2022/10/12 07:03:14;;;;;;;52.77;48.20;;;14.50;92.80;;;;;;5009688;28;20536;-78
2022/10/12 07:05:40;;;;;;;41.70;37.23;;;14.60;92.50;;;;;;5011014;28;20560;-78
2022/10/12 07:08:07;;;;;;;39.60;35.50;;;14.50;92.80;;;;;;5004207;28;20472;-77
2022/10/12 07:10:34;;;;;;;42.23;38.27;;;14.60;92.70;;;;;;5001071;28;20464;-78
2022/10/12 07:13:01;;;;;;;43.07;38.60;;;14.60;92.60;;;;;;5008427;28;20553;-77
2022/10/12 07:15:28;;;;;;;38.03;34.40;;;14.60;92.60;;;;;;5012111;28;20472;-77
2022/10/12 07:17:55;;;;;;;37.17;33.27;;;14.70;92.50;;;;;;5009056;28;20539;-78
2022/10/12 07:20:23;;;;;;;45.17;40.90;;;14.70;92.50;;;;;;5012688;28;20532;-79
2022/10/12 07:22:52;;;;;;;45.53;41.07;;;14.70;92.70;;;;;;5011130;28;20457;-79
2022/10/12 07:25:21;;;;;;;48.10;44.00;;;14.70;92.80;;;;;;5020928;28;20512;-79
2022/10/12 07:27:48;;;;;;;39.97;36.17;;;14.70;92.80;;;;;;5018172;28;20471;-80
2022/10/12 07:30:15;;;;;;;39.87;36.30;;;14.90;92.60;;;;;;5024573;28;20457;-79
2022/10/12 07:32:44;;;;;;;48.93;44.83;;;14.90;92.50;;;;;;5020878;28;20453;-81
2022/10/12 07:35:11;;;;;;;39.00;35.03;;;15.00;92.20;;;;;;5000886;28;20501;-80
2022/10/12 07:37:40;;;;;;;42.27;38.07;;;15.20;91.50;;;;;;5007781;28;20488;-78
2022/10/12 07:40:08;;;;;;;41.87;37.97;;;15.10;91.10;;;;;;5009667;28;20491;-77
2022/10/12 07:42:35;;;;;;;37.10;33.73;;;15.10;91.10;;;;;;5000120;28;20457;-79
2022/10/12 07:45:02;;;;;;;41.73;37.53;;;15.20;91.10;;;;;;5011172;28;21028;-79
2022/10/12 07:47:29;;;;;;;57.27;52.70;;;15.30;90.80;;;;;;5012541;28;20472;-79
2022/10/12 07:49:56;;;;;;;41.00;37.40;;;15.30;90.60;;;;;;5012044;28;20557;-79
2022/10/12 07:52:26;;;;;;;41.83;37.77;;;15.40;90.60;;;;;;5012147;28;20457;-79
2022/10/12 07:54:54;;;;;;;40.70;37.20;;;15.50;90.20;;;;;;5011666;28;20579;-79
2022/10/12 07:57:21;;;;;;;46.83;42.97;;;15.50;90.30;;;;;;5015655;28;20491;-79
2022/10/12 07:59:48;;;;;;;40.07;36.10;;;15.60;90.40;;;;;;5012792;28;20504;-79
2022/10/12 08:02:15;;;;;;;51.23;46.63;;;15.80;90.00;;;;;;5014055;28;20448;-78
2022/10/12 08:04:42;;;;;;;40.47;36.57;;;15.80;89.00;;;;;;5009569;28;20479;-80
2022/10/12 08:07:15;;;;;;;45.67;41.87;;;15.90;88.70;;;;;;5014588;28;20485;-80
2022/10/12 08:09:45;;;;;;;55.40;51.43;;;16.00;88.20;;;;;;5012448;28;20873;-80
2022/10/12 08:12:17;;;;;;;58.90;53.23;;;16.20;87.60;;;;;;5013235;28;20453;-80
2022/10/12 08:14:44;;;;;;;47.20;43.10;;;16.30;87.40;;;;;;5013429;28;20481;-80
2022/10/12 08:17:11;;;;;;;54.97;50.70;;;16.50;86.40;;;;;;5015143;28;20897;-80
2022/10/12 08:19:38;;;;;;;65.60;61.03;;;16.50;86.00;;;;;;5012547;28;20461;-81
2022/10/12 08:22:05;;;;;;;52.20;48.47;;;16.60;85.70;;;;;;5011346;28;21016;-80
2022/10/12 08:24:35;;;;;;;48.73;44.80;;;16.60;85.20;;;;;;5011274;28;20480;-81
2022/10/12 08:27:05;;;;;;;46.90;43.07;;;16.80;85.10;;;;;;5011940;28;20480;-81
2022/10/12 08:29:33;;;;;;;40.60;37.30;;;16.80;84.80;;;;;;5011331;28;20461;-81
2022/10/12 08:32:01;;;;;;;66.73;62.17;;;17.00;84.50;;;;;;5011771;28;20476;-81
2022/10/12 08:34:34;;;;;;;39.63;36.20;;;17.00;84.10;;;;;;5010450;28;20592;-81
2022/10/12 08:37:01;;;;;;;47.80;43.67;;;17.10;84.00;;;;;;5011518;28;20465;-81
2022/10/12 08:39:28;;;;;;;49.93;45.67;;;17.20;83.70;;;;;;5012740;28;20461;-80
2022/10/12 08:42:10;;;;;;;42.50;39.13;;;17.30;83.40;;;;;;5018109;28;20465;-81
2022/10/12 08:44:52;;;;;;;47.10;43.60;;;17.50;82.70;;;;;;5018551;28;20555;-81
2022/10/12 08:47:24;;;;;;;51.00;47.20;;;17.70;81.80;;;;;;5016828;28;20524;-80
2022/10/12 08:49:53;;;;;;;47.67;43.97;;;17.80;81.50;;;;;;5009174;28;20500;-80
2022/10/12 08:52:29;;;;;;;40.67;37.57;;;17.90;81.00;;;;;;5014871;28;20543;-81
2022/10/12 08:55:00;;;;;;;43.73;40.47;;;18.10;80.10;;;;;;5015564;28;20544;-79
2022/10/12 08:57:27;;;;;;;56.37;52.40;;;18.20;79.50;;;;;;5020159;28;20463;-80
2022/10/12 08:59:55;;;;;;;42.20;39.20;;;18.30;79.20;;;;;;5019519;28;20481;-79
2022/10/12 09:02:37;;;;;;;56.63;52.77;;;18.40;78.50;;;;;;5020522;28;20938;-80
2022/10/12 09:05:08;;;;;;;42.77;39.70;;;18.50;78.20;;;;;;5010218;28;20544;-80
2022/10/12 09:07:39;;;;;;;67.10;62.50;;;18.50;78.30;;;;;;5020611;28;20456;-79
2022/10/12 09:10:20;;;;;;;44.93;41.70;;;18.50;78.10;;;;;;5019166;28;20463;-80
2022/10/12 09:12:55;;;;;;;48.37;44.80;;;18.70;77.70;;;;;;5020123;28;20504;-80
2022/10/12 09:15:28;;;;;;;47.47;44.20;;;18.70;77.20;;;;;;5019700;28;20484;-80
2022/10/12 09:17:57;;;;;;;59.53;55.57;;;18.70;77.10;;;;;;5019807;28;20491;-80
2022/10/12 09:20:27;;;;;;;50.13;46.27;;;18.80;76.70;;;;;;5019144;28;20520;-79
2022/10/12 09:22:58;;;;;;;49.67;46.00;;;19.00;76.10;;;;;;5020771;28;20528;-80
2022/10/12 09:25:26;;;;;;;42.23;39.43;;;19.00;75.80;;;;;;5018732;28;20548;-79
2022/10/12 09:27:56;;;;;;;50.33;46.77;;;19.10;75.40;;;;;;5018440;28;20539;-80
2022/10/12 09:30:24;;;;;;;45.53;42.40;;;19.10;75.30;;;;;;5018749;28;20453;-79
2022/10/12 09:33:15;;;;;;;53.07;49.80;;;19.00;75.00;;;;;;5018268;28;20543;-79
2022/10/12 09:35:44;;;;;;;57.80;53.97;;;18.80;75.70;;;;;;5019817;28;20449;-80
2022/10/12 09:38:11;;;;;;;46.77;43.50;;;18.80;75.80;;;;;;5015200;28;20487;-79
2022/10/12 09:40:39;;;;;;;56.27;52.80;;;18.80;75.60;;;;;;5018405;28;20539;-80
2022/10/12 09:43:08;;;;;;;69.57;65.57;;;18.80;75.40;;;;;;5016526;28;20521;-79
2022/10/12 09:45:37;;;;;;;60.67;56.60;;;18.80;74.90;;;;;;5019106;28;20500;-79
2022/10/12 09:48:19;;;;;;;46.87;43.57;;;18.80;75.20;;;;;;5016178;28;20476;-80
2022/10/12 09:50:50;;;;;;;41.80;38.80;;;18.90;74.80;;;;;;5019774;28;20457;-79
2022/10/12 09:53:26;;;;;;;44.33;41.13;;;18.80;74.80;;;;;;5016809;28;20943;-81
2022/10/12 09:56:00;;;;;;;42.77;39.87;;;18.80;74.90;;;;;;5009178;28;20500;-83
2022/10/12 09:58:28;;;;;;;39.27;36.67;;;18.80;75.20;;;;;;5009051;28;20504;-79
2022/10/12 10:01:15;;;;;;;44.07;41.37;;;18.80;75.10;;;;;;5018144;28;20479;-82
2022/10/12 10:03:42;;;;;;;44.20;40.87;;;18.90;74.80;;;;;;5015019;28;20994;-81
2022/10/12 10:06:09;;;;;;;44.87;41.73;;;18.70;74.90;;;;;;5015608;28;20483;-80
2022/10/12 10:08:40;;;;;;;42.07;39.13;;;18.70;75.30;;;;;;5008185;28;20571;-78
2022/10/12 10:11:15;;;;;;;46.00;42.97;;;18.70;75.30;;;;;;5007683;28;20482;-80
2022/10/12 10:13:48;;;;;;;47.70;44.23;;;18.80;74.90;;;;;;5010850;28;20480;-80
2022/10/12 10:16:18;;;;;;;42.60;39.77;;;18.90;74.90;;;;;;5018890;28;20456;-80
2022/10/12 10:18:48;;;;;;;45.03;42.13;;;18.90;74.60;;;;;;5027490;28;20480;-81
2022/10/12 10:21:24;;;;;;;52.73;49.30;;;18.90;74.70;;;;;;5026156;28;20460;-81
2022/10/12 10:23:53;;;;;;;46.57;43.37;;;19.00;74.50;;;;;;5026456;28;21041;-81
2022/10/12 10:26:22;;;;;;;40.90;38.00;;;19.10;74.10;;;;;;5027876;28;20477;-81
2022/10/12 10:28:53;;;;;;;55.47;52.03;;;19.10;73.80;;;;;;5027106;28;20511;-80
2022/10/12 10:31:26;;;;;;;53.87;50.60;;;19.20;73.20;;;;;;5027052;28;20465;-80
2022/10/12 10:34:25;;;;;;;40.00;37.20;;;19.10;73.50;;;;;;5025130;28;20472;-80
2022/10/12 10:36:54;;;;;;;45.83;42.77;;;19.30;73.20;;;;;;5026746;28;20444;-81
2022/10/12 10:39:25;;;;;;;39.63;37.13;;;19.20;73.30;;;;;;5027033;28;20463;-81
2022/10/12 10:41:54;;;;;;;41.20;38.80;;;19.20;73.30;;;;;;5025496;28;20460;-81
2022/10/12 10:44:27;;;;;;;55.20;52.03;;;19.30;73.20;;;;;;5025817;28;20473;-81
2022/10/12 10:47:00;;;;;;;55.60;52.33;;;19.40;72.80;;;;;;5014697;28;20595;-81
2022/10/12 10:49:36;;;;;;;54.13;51.00;;;19.50;72.60;;;;;;5019082;28;20477;-83
2022/10/12 10:52:05;;;;;;;52.30;48.17;;;19.50;72.30;;;;;;5029251;28;20539;-82
2022/10/12 10:54:35;;;;;;;41.53;38.80;;;19.60;71.90;;;;;;5026859;28;20483;-82
2022/10/12 10:57:06;;;;;;;42.57;39.60;;;19.70;71.60;;;;;;5021280;28;20541;-81
2022/10/12 10:59:45;;;;;;;48.73;45.70;;;19.50;71.40;;;;;;5017274;28;20544;-80
2022/10/12 11:02:31;;;;;;;53.17;49.77;;;19.60;71.90;;;;;;5015503;28;21015;-75
2022/10/12 11:05:05;;;;;;;53.50;50.13;;;19.70;72.00;;;;;;5013713;28;20478;-82
2022/10/12 11:07:39;;;;;;;49.30;46.37;;;19.80;71.60;;;;;;5014755;28;20472;-81
2022/10/12 11:10:19;;;;;;;60.63;56.93;;;19.90;70.90;;;;;;5017766;28;20488;-80
2022/10/12 11:12:50;;;;;;;46.37;43.30;;;19.80;70.50;;;;;;5014953;28;20487;-81
2022/10/12 11:15:23;;;;;;;49.37;46.00;;;19.90;70.60;;;;;;5015242;28;20487;-81
2022/10/12 11:17:58;;;;;;;56.50;52.93;;;19.90;71.20;;;;;;5015759;28;20464;-83
2022/10/12 11:20:45;;;;;;;40.30;37.43;;;20.00;70.60;;;;;;5005732;28;20508;-81
2022/10/12 11:23:20;;;;;;;50.70;46.87;;;19.90;70.50;;;;;;5014679;28;20457;-82
2022/10/12 11:26:08;;;;;;;39.60;36.67;;;19.90;70.70;;;;;;5027354;28;20452;-81
2022/10/12 11:28:37;;;;;;;39.90;37.40;;;19.90;70.50;;;;;;5024261;28;20460;-79
2022/10/12 11:31:07;;;;;;;47.30;44.33;;;20.00;70.30;;;;;;5011775;28;20469;-81
2022/10/12 11:33:39;;;;;;;54.57;51.17;;;20.10;69.70;;;;;;5012422;28;20487;-79
2022/10/12 11:36:10;;;;;;;46.90;44.07;;;20.20;69.60;;;;;;5012629;28;20512;-83
2022/10/12 11:38:42;;;;;;;43.60;40.50;;;20.30;69.90;;;;;;5015200;28;20457;-81
2022/10/12 11:41:13;;;;;;;41.73;39.00;;;20.40;70.60;;;;;;5012536;28;20732;-81
2022/10/12 11:43:46;;;;;;;55.37;51.87;;;20.40;70.40;;;;;;5012103;28;21013;-80
2022/10/12 11:46:16;;;;;;;50.00;46.90;;;20.40;70.00;;;;;;5012565;28;20530;-82
2022/10/12 11:48:50;;;;;;;55.30;51.80;;;20.40;69.30;;;;;;5014891;28;20459;-82
2022/10/12 11:51:17;;;;;;;60.37;56.97;;;20.40;69.00;;;;;;5011813;28;20456;-81
2022/10/12 11:53:53;;;;;;;47.83;44.80;;;20.20;68.60;;;;;;5013094;28;20569;-81
2022/10/12 11:56:24;;;;;;;52.43;49.33;;;20.00;69.70;;;;;;5013862;28;20830;-80
2022/10/12 11:58:56;;;;;;;51.60;48.70;;;20.10;70.70;;;;;;5012995;28;20543;-80
2022/10/12 12:01:40;;;;;;;50.20;46.80;;;20.20;70.20;;;;;;5014796;28;20544;-80
2022/10/12 12:04:30;;;;;;;49.23;46.33;;;20.40;70.40;;;;;;5014314;28;20850;-81
2022/10/12 12:07:01;;;;;;;46.00;43.27;;;20.30;70.20;;;;;;5011108;28;20472;-81
2022/10/12 12:09:41;;;;;;;46.43;43.43;;;20.30;70.70;;;;;;5018418;28;20529;-83
2022/10/12 12:12:16;;;;;;;42.37;39.47;;;20.50;69.60;;;;;;5001965;28;20476;-84
2022/10/12 12:15:05;;;;;;;63.00;59.57;;;20.50;69.40;;;;;;5018746;28;20484;-82
2022/10/12 12:17:33;;;;;;;51.87;48.30;;;20.50;70.70;;;;;;5021856;28;21262;-82
2022/10/12 12:20:03;;;;;;;45.80;43.20;;;20.70;69.90;;;;;;5018188;28;21052;-81
2022/10/12 12:22:32;;;;;;;39.50;36.90;;;20.90;69.20;;;;;;5017353;28;20459;-81
2022/10/12 12:25:23;;;;;;;39.63;36.57;;;20.90;68.90;;;;;;5012441;28;20481;-81
2022/10/12 12:27:52;;;;;;;50.93;48.00;;;21.00;69.00;;;;;;5005886;28;20472;-82
2022/10/12 12:30:35;;;;;;;49.53;46.57;;;21.10;68.60;;;;;;5015220;28;20561;-83
2022/10/12 12:33:06;;;;;;;49.77;46.93;;;21.20;68.60;;;;;;5015523;28;20449;-82
2022/10/12 12:35:39;;;;;;;60.40;56.53;;;21.20;67.70;;;;;;5013588;28;20501;-84
2022/10/12 12:38:33;;;;;;;41.90;39.50;;;21.20;67.80;;;;;;5004694;28;20883;-83
2022/10/12 12:41:11;;;;;;;59.77;55.87;;;21.30;67.40;;;;;;5007059;28;20453;-82
2022/10/12 12:43:57;;;;;;;60.03;56.70;;;21.20;66.80;;;;;;5017540;28;20507;-80